Time;durP1;ratioP1;P1;durP2;ratioP2;P2;SDS_P1;SDS_P2;PMS_P1;PMS_P2;Temp;Humidity;BMP_temperature;BMP_pressure;BME280_temperature;BME280_humidity;BME280_pressure;Samples;Min_cycle;Max_cycle;Signal;HPM_P1;HPM_P2
2022/04/05 00:00:47;;;;;;;10.52;6.00;;;20.70;97.50;;;;;;4952005;28;20903;-87
2022/04/05 00:03:16;;;;;;;8.30;5.72;;;20.70;97.20;;;;;;4952623;29;20392;-88
2022/04/05 00:05:43;;;;;;;8.87;5.60;;;20.80;97.70;;;;;;4952771;28;20439;-89
2022/04/05 00:08:10;;;;;;;8.65;5.97;;;21.00;96.10;;;;;;4964815;28;20478;-92
2022/04/05 00:10:37;;;;;;;8.88;5.70;;;21.10;95.40;;;;;;4951732;28;20390;-87
2022/04/05 00:13:07;;;;;;;9.95;5.78;;;21.30;96.10;;;;;;4963477;28;20403;-89
2022/04/05 00:15:35;;;;;;;8.05;5.20;;;21.40;94.10;;;;;;4938679;29;20408;-86
2022/04/05 00:18:02;;;;;;;7.18;5.18;;;21.50;93.30;;;;;;4964675;28;20388;-89
2022/04/05 00:20:30;;;;;;;6.63;5.22;;;21.80;92.70;;;;;;4941787;28;20434;-91
2022/04/05 00:22:58;;;;;;;9.35;5.72;;;22.30;89.50;;;;;;4939607;29;20442;-92
2022/04/05 00:25:25;;;;;;;7.35;5.10;;;22.60;86.60;;;;;;4952100;28;20420;-88
2022/04/05 00:27:55;;;;;;;7.10;5.00;;;22.90;86.20;;;;;;4937147;28;20492;-89
2022/04/05 00:30:23;;;;;;;7.28;5.20;;;23.00;82.40;;;;;;4917745;29;20396;-88
2022/04/05 00:32:52;;;;;;;7.03;5.22;;;23.00;84.00;;;;;;4896206;29;20402;-93
2022/04/05 00:35:21;;;;;;;7.25;5.15;;;23.10;85.80;;;;;;4883148;29;20835;-89
2022/04/05 00:37:49;;;;;;;6.97;4.97;;;23.20;81.80;;;;;;4872747;29;20442;-87
2022/04/05 00:40:16;;;;;;;7.20;4.70;;;23.00;78.80;;;;;;4874678;29;20399;-86
2022/04/05 00:42:43;;;;;;;6.83;4.90;;;22.90;81.00;;;;;;4875518;29;20437;-91
2022/04/05 00:45:11;;;;;;;8.30;4.73;;;22.90;83.40;;;;;;4875696;29;20399;-88
2022/04/05 00:47:39;;;;;;;6.22;4.72;;;22.90;82.40;;;;;;4875394;29;20407;-89
2022/04/05 00:50:08;;;;;;;5.85;4.72;;;23.20;81.30;;;;;;4885434;29;20407;-91
2022/04/05 00:52:35;;;;;;;8.05;4.60;;;23.40;79.10;;;;;;4870266;29;20433;-87
2022/04/05 00:55:04;;;;;;;6.75;4.18;;;23.30;80.10;;;;;;4894863;29;20811;-90
2022/04/05 00:57:34;;;;;;;7.15;4.43;;;23.30;76.40;;;;;;4881109;29;20924;-87
2022/04/05 01:00:04;;;;;;;5.25;4.32;;;23.30;78.30;;;;;;4907573;29;20424;-92
2022/04/05 01:02:36;;;;;;;6.25;4.32;;;23.60;76.90;;;;;;4916515;29;21004;-89
2022/04/05 01:05:07;;;;;;;5.40;4.40;;;23.70;77.80;;;;;;4917110;29;20414;-92
2022/04/05 01:07:41;;;;;;;7.55;4.72;;;24.00;77.00;;;;;;4917625;29;20388;-88
2022/04/05 01:10:11;;;;;;;7.30;4.40;;;23.90;75.20;;;;;;4944255;28;20415;-89
2022/04/05 01:12:38;;;;;;;6.57;4.05;;;23.90;78.90;;;;;;4954128;28;20398;-89
2022/04/05 01:15:06;;;;;;;5.93;4.18;;;24.00;79.20;;;;;;4967483;28;20421;-88
2022/04/05 01:17:34;;;;;;;5.97;3.70;;;24.10;76.20;;;;;;4973939;28;20391;-88
2022/04/05 01:20:02;;;;;;;5.03;3.80;;;24.40;72.30;;;;;;4956848;28;20473;-90
2022/04/05 01:22:29;;;;;;;5.70;4.00;;;24.80;68.50;;;;;;4957773;28;20503;-89
2022/04/05 01:24:56;;;;;;;5.28;3.60;;;25.10;67.80;;;;;;4956700;28;20388;-87
2022/04/05 01:27:27;;;;;;;5.60;3.70;;;25.10;64.90;;;;;;4975606;28;20422;-92
2022/04/05 01:29:57;;;;;;;6.30;4.10;;;25.20;64.40;;;;;;4964749;28;20419;-88
2022/04/05 01:32:24;;;;;;;7.38;4.00;;;25.20;65.40;;;;;;4952194;28;20395;-86
2022/04/05 01:34:51;;;;;;;6.40;4.00;;;25.40;65.10;;;;;;4952287;28;20427;-93
2022/04/05 01:37:18;;;;;;;5.93;3.85;;;25.60;66.90;;;;;;4961562;28;20391;-90
2022/04/05 01:39:45;;;;;;;4.88;3.83;;;25.80;64.60;;;;;;4969831;28;20398;-88
2022/04/05 01:42:14;;;;;;;7.05;4.30;;;26.10;62.40;;;;;;4951893;28;20415;-90
2022/04/05 01:44:45;;;;;;;8.95;4.28;;;26.20;63.70;;;;;;4955762;28;20397;-86
2022/04/05 01:47:14;;;;;;;6.97;4.20;;;26.50;62.20;;;;;;4958660;28;20392;-84
2022/04/05 01:49:44;;;;;;;7.07;4.30;;;26.70;61.70;;;;;;4963448;28;20398;-86
2022/04/05 01:52:13;;;;;;;11.70;4.45;;;26.90;60.00;;;;;;4969509;28;20441;-88
2022/04/05 01:54:41;;;;;;;9.23;4.63;;;27.00;60.90;;;;;;4964123;28;20390;-88
2022/04/05 01:57:09;;;;;;;8.10;4.20;;;27.70;59.60;;;;;;4933731;29;20415;-91
2022/04/05 01:59:38;;;;;;;11.10;4.40;;;28.40;56.10;;;;;;4949873;28;20467;-93
2022/04/05 02:02:10;;;;;;;9.57;4.43;;;27.80;58.40;;;;;;4953144;28;20510;-90
2022/04/05 02:04:38;;;;;;;9.40;4.50;;;28.20;57.40;;;;;;4933092;28;20490;-91
2022/04/05 02:07:14;;;;;;;6.87;4.00;;;29.30;55.40;;;;;;4935204;28;20393;-92
2022/04/05 02:09:42;;;;;;;7.88;4.22;;;30.20;53.30;;;;;;4962288;28;20386;-88
2022/04/05 02:12:10;;;;;;;9.18;4.18;;;31.00;51.60;;;;;;4967530;28;20390;-88
2022/04/05 02:14:38;;;;;;;9.10;4.00;;;30.80;50.90;;;;;;4954121;28;20499;-96
2022/04/05 02:17:07;;;;;;;6.82;4.30;;;30.30;50.20;;;;;;4941098;29;20388;-91
2022/04/05 02:19:38;;;;;;;6.53;4.20;;;29.10;53.70;;;;;;4963421;28;20819;-87
2022/04/05 02:22:05;;;;;;;5.53;4.00;;;28.30;53.10;;;;;;4970275;28;20422;-90
2022/04/05 02:24:32;;;;;;;7.40;3.87;;;28.80;54.30;;;;;;4961577;28;20411;-89
2022/04/05 02:26:59;;;;;;;5.40;3.78;;;29.80;52.00;;;;;;4960712;28;20866;-91
2022/04/05 02:29:27;;;;;;;5.20;3.53;;;30.80;51.10;;;;;;4970843;28;20374;-90
2022/04/05 02:31:55;;;;;;;4.70;3.83;;;31.90;47.60;;;;;;4952672;28;20462;-85
2022/04/05 02:34:22;;;;;;;4.03;3.60;;;32.50;47.00;;;;;;4967561;28;20435;-87
2022/04/05 02:36:48;;;;;;;3.50;3.20;;;32.40;47.40;;;;;;4959931;28;20437;-88
2022/04/05 02:39:16;;;;;;;4.80;3.33;;;32.70;45.10;;;;;;4957711;28;20463;-89
2022/04/05 02:41:46;;;;;;;7.18;3.30;;;33.20;45.80;;;;;;4954896;28;20469;-86
2022/04/05 02:44:16;;;;;;;13.85;5.05;;;33.70;44.60;;;;;;4960176;28;20386;-87
2022/04/05 02:46:43;;;;;;;43.23;8.50;;;33.50;46.10;;;;;;4966957;28;20441;-88
2022/04/05 02:49:13;;;;;;;4.57;3.40;;;33.70;46.70;;;;;;4950264;28;20388;-88
2022/04/05 02:51:40;;;;;;;5.43;3.60;;;34.20;43.50;;;;;;4956780;28;20398;-87
2022/04/05 02:54:07;;;;;;;12.75;5.18;;;33.40;44.90;;;;;;4964933;28;20886;-86
2022/04/05 02:56:34;;;;;;;11.88;4.03;;;33.50;46.40;;;;;;4962129;28;20908;-88
2022/04/05 02:59:06;;;;;;;19.10;5.55;;;33.60;45.00;;;;;;4967605;28;20399;-88
2022/04/05 03:01:33;;;;;;;3.60;2.70;;;34.40;44.40;;;;;;4961274;28;20956;-89
2022/04/05 03:04:00;;;;;;;3.53;2.70;;;33.80;42.20;;;;;;4938794;29;20400;-94
2022/04/05 03:06:27;;;;;;;4.60;2.80;;;33.80;42.80;;;;;;4965561;28;20403;-87
2022/04/05 03:08:56;;;;;;;4.97;3.37;;;34.20;41.90;;;;;;4951339;28;20926;-87
2022/04/05 03:11:23;;;;;;;10.47;3.73;;;34.00;41.90;;;;;;4951554;29;20403;-87
2022/04/05 03:13:50;;;;;;;38.30;7.80;;;32.50;43.30;;;;;;4966025;28;20933;-88
2022/04/05 03:16:17;;;;;;;9.20;4.13;;;31.60;45.20;;;;;;4959346;28;20428;-88
2022/04/05 03:18:47;;;;;;;10.15;3.55;;;32.30;44.80;;;;;;4955817;28;20388;-87
2022/04/05 03:21:23;;;;;;;9.45;3.25;;;33.30;43.50;;;;;;4962145;28;20400;-87
2022/04/05 03:23:49;;;;;;;14.15;4.82;;;33.50;44.00;;;;;;4946592;29;20408;-89
2022/04/05 03:26:17;;;;;;;12.95;4.25;;;33.70;42.40;;;;;;4961064;28;20388;-88
2022/04/05 03:28:44;;;;;;;5.22;2.70;;;34.10;41.30;;;;;;4953108;28;20516;-89
2022/04/05 03:31:12;;;;;;;3.97;2.50;;;34.80;41.10;;;;;;4955791;28;20391;-89
2022/04/05 03:33:40;;;;;;;3.53;2.40;;;35.40;39.30;;;;;;4968383;28;20402;-91
2022/04/05 03:36:07;;;;;;;3.20;2.60;;;35.50;39.10;;;;;;4964497;28;20443;-86
2022/04/05 03:38:34;;;;;;;7.20;2.80;;;35.60;39.50;;;;;;4962871;28;20411;-88
2022/04/05 03:41:01;;;;;;;3.55;2.65;;;35.90;39.80;;;;;;4976519;28;20389;-89
2022/04/05 03:43:28;;;;;;;6.00;2.40;;;36.00;38.80;;;;;;4952647;28;20479;-85
2022/04/05 03:45:56;;;;;;;3.35;2.40;;;36.10;38.40;;;;;;4952328;29;20463;-87
2022/04/05 03:48:28;;;;;;;6.35;3.67;;;36.10;37.80;;;;;;4956912;29;20411;-87
2022/04/05 03:50:55;;;;;;;7.97;3.07;;;35.00;38.60;;;;;;4943557;28;20405;-88
2022/04/05 03:53:22;;;;;;;4.72;2.38;;;35.10;39.80;;;;;;4960207;28;20804;-93
2022/04/05 03:55:51;;;;;;;40.28;8.25;;;35.80;39.10;;;;;;4955646;28;20388;-89
2022/04/05 03:58:20;;;;;;;7.97;2.92;;;36.00;39.60;;;;;;4961592;28;20856;-87
2022/04/05 04:00:47;;;;;;;3.13;1.83;;;35.40;40.50;;;;;;4955954;28;20791;-89
2022/04/05 04:03:16;;;;;;;2.97;1.90;;;35.50;40.10;;;;;;4974054;28;20481;-90
2022/04/05 04:05:45;;;;;;;4.35;1.98;;;34.60;41.70;;;;;;4971958;28;20390;-89
2022/04/05 04:08:12;;;;;;;3.05;1.92;;;35.20;40.90;;;;;;4974416;28;20382;-86
2022/04/05 04:10:39;;;;;;;5.35;2.10;;;36.00;40.10;;;;;;4957362;28;20475;-86
2022/04/05 04:13:07;;;;;;;7.85;2.40;;;36.50;38.80;;;;;;4957731;28;20390;-87
2022/04/05 04:15:34;;;;;;;7.07;2.20;;;36.50;39.20;;;;;;4962925;28;20447;-88
2022/04/05 04:18:04;;;;;;;3.08;1.95;;;35.60;40.00;;;;;;4956041;28;20903;-88
2022/04/05 04:20:33;;;;;;;4.45;1.90;;;35.90;39.40;;;;;;4957089;28;20423;-89
2022/04/05 04:23:00;;;;;;;4.30;1.85;;;35.90;39.20;;;;;;4954577;29;20454;-89
2022/04/05 04:25:31;;;;;;;1.85;1.75;;;35.40;39.60;;;;;;4956486;28;20461;-90
2022/04/05 04:27:58;;;;;;;2.15;1.92;;;35.60;39.50;;;;;;4952308;28;20453;-88
2022/04/05 04:30:25;;;;;;;3.00;1.80;;;35.80;39.20;;;;;;4972011;28;20470;-87
2022/04/05 04:32:54;;;;;;;3.00;2.00;;;35.50;40.90;;;;;;4960969;28;20388;-87
2022/04/05 04:35:21;;;;;;;3.08;1.80;;;34.00;41.50;;;;;;4955482;29;20397;-87
2022/04/05 04:37:48;;;;;;;2.85;1.80;;;34.30;41.10;;;;;;4955784;29;20510;-92
2022/04/05 04:40:15;;;;;;;5.20;1.85;;;35.00;40.60;;;;;;4939137;28;20402;-89
2022/04/05 04:42:43;;;;;;;2.70;1.90;;;35.60;39.80;;;;;;4946909;28;20904;-89
2022/04/05 04:45:10;;;;;;;3.85;1.92;;;35.90;40.60;;;;;;4958580;28;20388;-88
2022/04/05 04:47:37;;;;;;;3.05;1.80;;;36.20;40.40;;;;;;4936415;29;20392;-88
2022/04/05 04:50:06;;;;;;;2.30;1.70;;;36.30;40.50;;;;;;4952825;28;20398;-88
2022/04/05 04:52:33;;;;;;;3.25;1.80;;;36.00;43.60;;;;;;4959340;28;20474;-89
2022/04/05 04:55:00;;;;;;;3.55;1.85;;;35.60;46.20;;;;;;4970109;28;20388;-88
2022/04/05 04:57:31;;;;;;;4.57;2.17;;;35.90;47.20;;;;;;4961208;28;20397;-88
2022/04/05 04:59:58;;;;;;;5.22;1.75;;;35.70;48.00;;;;;;4973549;28;20461;-90
2022/04/05 05:02:27;;;;;;;5.30;1.90;;;35.80;48.50;;;;;;4956294;28;20502;-90
2022/04/05 05:04:54;;;;;;;5.28;1.92;;;35.70;48.70;;;;;;4939290;29;20467;-91
2022/04/05 05:07:21;;;;;;;14.68;5.22;;;35.60;49.80;;;;;;4960305;28;20402;-87
2022/04/05 05:09:48;;;;;;;6.93;2.10;;;35.10;50.80;;;;;;4973357;28;20763;-88
2022/04/05 05:12:15;;;;;;;5.27;1.80;;;34.90;50.20;;;;;;4955204;28;20463;-89
2022/04/05 05:14:44;;;;;;;3.38;1.55;;;34.60;50.80;;;;;;4935902;29;20410;-91
2022/04/05 05:17:11;;;;;;;4.40;1.83;;;34.40;50.80;;;;;;4920136;29;20486;-88
2022/04/05 05:19:38;;;;;;;5.32;1.85;;;34.40;51.00;;;;;;4953621;28;20380;-89
2022/04/05 05:22:05;;;;;;;4.83;1.87;;;34.30;51.70;;;;;;4936042;28;20416;-91
2022/04/05 05:24:33;;;;;;;3.80;1.70;;;34.50;51.00;;;;;;4964211;28;20390;-88
2022/04/05 05:27:00;;;;;;;5.95;2.00;;;34.50;51.40;;;;;;4969530;28;20507;-89
2022/04/05 05:29:27;;;;;;;4.57;1.95;;;34.10;52.50;;;;;;4969589;28;20410;-89
2022/04/05 05:31:54;;;;;;;5.22;2.00;;;33.60;53.40;;;;;;4960108;28;20420;-88
2022/04/05 05:34:23;;;;;;;5.70;1.83;;;33.40;54.60;;;;;;4955351;28;21153;-88
2022/04/05 05:36:50;;;;;;;6.25;2.00;;;33.20;55.20;;;;;;4953051;28;20987;-90
2022/04/05 05:39:17;;;;;;;5.53;2.10;;;33.20;55.10;;;;;;4934609;29;20399;-90
2022/04/05 05:41:47;;;;;;;5.05;2.00;;;33.30;55.10;;;;;;4933810;28;20434;-90
2022/04/05 05:44:16;;;;;;;6.47;2.05;;;33.10;56.00;;;;;;4958890;28;20483;-87
2022/04/05 05:46:45;;;;;;;7.18;2.10;;;32.80;56.90;;;;;;4966668;28;20766;-91
2022/04/05 05:49:12;;;;;;;9.75;2.10;;;32.30;57.40;;;;;;4952933;28;20427;-88
2022/04/05 05:51:39;;;;;;;7.43;2.30;;;32.20;58.30;;;;;;4969286;28;20481;-91
2022/04/05 05:54:07;;;;;;;4.63;1.90;;;32.30;58.60;;;;;;4952030;28;20743;-91
2022/04/05 05:56:34;;;;;;;4.90;1.93;;;32.30;57.80;;;;;;4930213;29;20428;-94
2022/04/05 05:59:01;;;;;;;6.73;2.03;;;32.20;58.70;;;;;;4950846;29;20385;-88
2022/04/05 06:01:28;;;;;;;7.43;2.08;;;32.10;58.90;;;;;;4951090;29;20907;-89
2022/04/05 06:03:55;;;;;;;5.43;1.92;;;31.80;59.00;;;;;;4934072;29;20475;-91
2022/04/05 06:06:23;;;;;;;6.27;1.87;;;31.70;59.20;;;;;;4936008;28;20931;-88
2022/04/05 06:08:50;;;;;;;4.90;2.10;;;31.60;59.20;;;;;;4960193;28;20384;-91
2022/04/05 06:11:17;;;;;;;5.68;1.90;;;31.50;60.70;;;;;;4950665;29;20744;-87
2022/04/05 06:13:44;;;;;;;9.23;2.00;;;31.00;61.40;;;;;;4971810;28;20477;-88
2022/04/05 06:16:11;;;;;;;8.67;2.10;;;30.90;62.10;;;;;;4971449;28;20933;-89
2022/04/05 06:18:38;;;;;;;9.38;2.25;;;30.80;62.70;;;;;;4968890;28;20543;-88
2022/04/05 06:21:08;;;;;;;6.00;2.17;;;30.30;63.30;;;;;;4964729;28;20394;-87
2022/04/05 06:23:35;;;;;;;8.15;2.10;;;29.60;65.20;;;;;;4971095;28;20398;-90
2022/04/05 06:26:02;;;;;;;7.78;2.15;;;29.00;67.40;;;;;;4947508;28;20404;-91
2022/04/05 06:28:31;;;;;;;7.28;2.03;;;28.50;69.40;;;;;;4946681;28;20473;-88
2022/04/05 06:30:58;;;;;;;7.75;2.20;;;28.00;71.50;;;;;;4934176;29;20416;-90
2022/04/05 06:33:25;;;;;;;6.33;2.20;;;27.60;73.40;;;;;;4952437;28;20393;-88
2022/04/05 06:35:56;;;;;;;8.75;2.13;;;27.20;76.10;;;;;;4958790;28;20418;-88
2022/04/05 06:38:24;;;;;;;6.32;2.10;;;27.10;77.90;;;;;;4968760;28;20405;-88
2022/04/05 06:40:52;;;;;;;6.38;2.30;;;26.80;80.30;;;;;;4966027;28;20395;-85
2022/04/05 06:43:24;;;;;;;8.02;2.05;;;26.50;83.60;;;;;;4968340;28;20435;-89
2022/04/05 06:45:51;;;;;;;9.53;1.90;;;26.00;85.80;;;;;;4951763;28;20388;-89
2022/04/05 06:48:19;;;;;;;7.53;1.95;;;26.20;88.50;;;;;;4953783;28;20467;-91
2022/04/05 06:50:47;;;;;;;7.53;2.07;;;26.00;90.40;;;;;;4933648;29;20511;-86
2022/04/05 06:53:14;;;;;;;6.63;1.70;;;25.90;91.20;;;;;;4932560;29;20415;-90
2022/04/05 06:55:41;;;;;;;5.28;1.90;;;25.70;91.80;;;;;;4954455;28;20399;-88
2022/04/05 06:58:08;;;;;;;6.45;2.00;;;25.50;92.60;;;;;;4944889;28;20390;-90
2022/04/05 07:00:36;;;;;;;10.77;1.95;;;25.30;93.90;;;;;;4963428;28;20427;-89
2022/04/05 07:03:04;;;;;;;8.75;2.00;;;25.20;94.70;;;;;;4963951;28;20505;-89
2022/04/05 07:05:33;;;;;;;7.63;2.00;;;25.00;95.90;;;;;;4953365;28;20433;-89
2022/04/05 07:08:01;;;;;;;6.07;2.10;;;24.70;96.90;;;;;;4964473;28;20425;-89
2022/04/05 07:10:28;;;;;;;7.78;1.98;;;24.50;98.00;;;;;;4957607;28;20397;-88
2022/04/05 07:12:56;;;;;;;7.60;2.05;;;24.30;99.60;;;;;;4956245;28;20392;-87
2022/04/05 07:15:23;;;;;;;7.53;2.13;;;24.20;99.90;;;;;;4957402;28;20432;-89
2022/04/05 07:17:50;;;;;;;9.63;2.20;;;24.10;99.90;;;;;;4937981;29;20915;-87
2022/04/05 07:20:18;;;;;;;9.95;2.40;;;23.90;99.90;;;;;;4938796;29;20391;-88
2022/04/05 07:22:50;;;;;;;7.93;2.55;;;23.70;99.90;;;;;;4954681;28;20502;-90
2022/04/05 07:25:21;;;;;;;8.27;2.00;;;23.40;99.90;;;;;;4954930;29;20380;-88
2022/04/05 07:27:52;;;;;;;9.02;2.25;;;23.20;99.90;;;;;;4939563;29;20395;-90
2022/04/05 07:30:24;;;;;;;8.82;2.20;;;23.00;99.90;;;;;;4972413;28;20395;-90
2022/04/05 07:32:54;;;;;;;7.15;2.20;;;22.80;99.90;;;;;;4973363;28;20438;-87
2022/04/05 07:35:24;;;;;;;8.00;2.03;;;23.10;99.90;;;;;;4949805;29;20403;-91
2022/04/05 07:37:57;;;;;;;11.05;2.25;;;22.50;99.90;;;;;;4938493;28;20393;-90
2022/04/05 07:40:52;;;;;;;7.13;2.20;;;22.40;99.90;;;;;;4943057;29;20388;-90
2022/04/05 07:43:24;;;;;;;7.57;2.10;;;22.20;99.90;;;;;;4968951;28;20525;-90
2022/04/05 07:45:52;;;;;;;8.30;2.35;;;21.10;99.90;;;;;;4952156;28;20909;-87
2022/04/05 07:48:25;;;;;;;7.05;1.90;;;22.00;99.90;;;;;;4957924;28;20403;-93
2022/04/05 07:50:52;;;;;;;7.55;2.10;;;21.90;99.90;;;;;;4955116;28;20392;-88
2022/04/05 07:53:20;;;;;;;6.32;2.05;;;21.80;99.90;;;;;;4949565;29;20479;-88
2022/04/05 07:55:47;;;;;;;6.40;2.13;;;21.70;99.90;;;;;;4951618;28;20405;-87
2022/04/05 07:58:14;;;;;;;8.10;2.28;;;21.50;99.90;;;;;;4974255;28;20922;-88
2022/04/05 08:00:41;;;;;;;9.13;2.40;;;21.50;99.90;;;;;;4974143;28;20382;-89
2022/04/05 08:03:08;;;;;;;7.80;2.20;;;21.40;99.90;;;;;;4954008;28;20438;-88
2022/04/05 08:05:35;;;;;;;8.43;2.35;;;21.30;99.90;;;;;;4952275;28;20388;-89
2022/04/05 08:08:02;;;;;;;10.40;2.35;;;21.20;99.90;;;;;;4952914;28;20939;-88
2022/04/05 08:10:29;;;;;;;7.88;2.30;;;21.20;99.90;;;;;;4969277;28;20383;-91
2022/04/05 08:12:57;;;;;;;8.88;2.55;;;21.10;99.90;;;;;;4959441;28;20403;-92
2022/04/05 08:15:25;;;;;;;8.13;2.63;;;21.10;99.90;;;;;;4941125;29;20476;-90
2022/04/05 08:17:52;;;;;;;19.17;10.88;;;21.10;99.90;;;;;;4971883;28;20456;-91
2022/04/05 08:20:20;;;;;;;22.20;12.48;;;21.00;99.90;;;;;;4957372;28;20380;-89
2022/04/05 08:22:48;;;;;;;27.40;13.95;;;21.00;99.90;;;;;;4943043;28;20419;-83
2022/04/05 08:25:17;;;;;;;12.17;4.70;;;20.90;99.90;;;;;;4973725;28;20890;-92
2022/04/05 08:27:46;;;;;;;10.52;2.55;;;20.90;99.90;;;;;;4958088;28;20429;-93
2022/04/05 08:30:15;;;;;;;9.70;2.72;;;20.90;99.90;;;;;;4943698;28;20400;-83
2022/04/05 08:32:43;;;;;;;10.33;2.73;;;20.80;99.90;;;;;;4962457;28;20430;-89
2022/04/05 08:35:13;;;;;;;9.35;2.58;;;20.80;99.90;;;;;;4962329;28;20478;-89
2022/04/05 08:37:48;;;;;;;12.90;2.70;;;20.80;99.90;;;;;;4967033;28;20379;-87
2022/04/05 08:40:16;;;;;;;10.27;2.47;;;20.70;99.90;;;;;;4910195;29;20439;-86
2022/04/05 08:42:48;;;;;;;8.77;2.60;;;21.10;99.90;;;;;;4954143;29;20467;-87
2022/04/05 08:45:20;;;;;;;8.68;2.40;;;20.70;99.90;;;;;;4960263;28;20414;-87
2022/04/05 08:47:53;;;;;;;9.02;2.40;;;20.70;99.90;;;;;;4948549;28;20398;-86
2022/04/05 08:50:26;;;;;;;8.82;2.55;;;20.60;99.90;;;;;;4946105;28;20391;-87
2022/04/05 08:52:59;;;;;;;9.95;2.45;;;20.60;99.90;;;;;;4968637;28;20392;-88
2022/04/05 08:55:28;;;;;;;12.50;2.72;;;20.60;99.90;;;;;;4964522;28;20395;-91
2022/04/05 08:57:56;;;;;;;11.55;2.60;;;20.50;99.90;;;;;;4961726;28;20953;-90
2022/04/05 09:00:24;;;;;;;10.60;2.50;;;20.50;99.90;;;;;;4964564;28;20398;-93
2022/04/05 09:03:03;;;;;;;9.23;2.55;;;20.50;99.90;;;;;;4945901;28;20420;-90
2022/04/05 09:05:42;;;;;;;9.17;2.57;;;20.50;99.90;;;;;;4944822;28;20533;-88
2022/04/05 09:08:19;;;;;;;9.98;2.30;;;20.40;99.90;;;;;;4976186;28;20767;-88
2022/04/05 09:10:52;;;;;;;8.55;2.45;;;20.30;99.90;;;;;;4946949;28;20487;-91
2022/04/05 09:13:22;;;;;;;7.53;2.20;;;20.30;99.90;;;;;;4938844;29;20551;-90
2022/04/05 09:15:51;;;;;;;7.80;2.22;;;20.30;99.90;;;;;;4937549;29;20457;-89
2022/04/05 09:18:39;;;;;;;10.70;2.40;;;20.20;99.90;;;;;;4942078;28;20778;-89
2022/04/05 09:21:09;;;;;;;9.90;2.72;;;20.20;99.90;;;;;;4934796;29;20397;-90
2022/04/05 09:23:41;;;;;;;8.73;2.30;;;20.10;99.90;;;;;;4934151;29;20476;-88
2022/04/05 09:26:11;;;;;;;10.25;2.40;;;20.10;99.90;;;;;;4932648;29;20409;-89
2022/04/05 09:28:43;;;;;;;8.38;2.30;;;20.00;99.90;;;;;;4934686;29;20386;-89
2022/04/05 09:31:12;;;;;;;10.77;2.42;;;20.00;99.90;;;;;;4935108;29;20396;-90
2022/04/05 09:34:02;;;;;;;9.18;2.15;;;20.00;99.90;;;;;;4940896;29;20894;-88
2022/04/05 09:36:39;;;;;;;10.57;2.33;;;20.00;99.90;;;;;;4937213;28;20400;-87
2022/04/05 09:39:17;;;;;;;12.95;2.67;;;20.00;99.90;;;;;;4940165;29;20396;-89
2022/04/05 09:42:00;;;;;;;13.05;3.10;;;20.00;99.90;;;;;;4950707;29;20404;-87
2022/04/05 09:44:33;;;;;;;12.32;2.88;;;20.00;99.90;;;;;;4943993;29;20432;-88
2022/04/05 09:47:14;;;;;;;15.30;3.10;;;20.00;99.90;;;;;;4959686;28;20373;-87
2022/04/05 09:49:45;;;;;;;16.40;3.10;;;20.00;99.90;;;;;;4954740;28;20407;-88
2022/04/05 09:52:43;;;;;;;14.50;3.08;;;20.00;99.90;;;;;;4954234;29;20383;-86
2022/04/05 09:55:12;;;;;;;15.65;3.90;;;20.00;99.90;;;;;;4903348;29;20403;-86
2022/04/05 09:57:43;;;;;;;15.73;4.80;;;20.00;99.90;;;;;;4918329;29;20443;-87
2022/04/05 10:00:21;;;;;;;15.93;4.60;;;20.00;99.90;;;;;;4918172;29;20407;-91
2022/04/05 10:03:06;;;;;;;18.92;3.92;;;20.00;99.90;;;;;;4917256;29;20430;-90
2022/04/05 10:05:35;;;;;;;12.90;3.30;;;20.00;99.90;;;;;;4916730;29;20412;-87
2022/04/05 10:08:03;;;;;;;15.05;3.90;;;20.00;99.90;;;;;;4917265;29;20398;-88
2022/04/05 10:10:33;;;;;;;15.65;3.70;;;20.00;99.90;;;;;;4915613;29;20435;-87
2022/04/05 10:13:00;;;;;;;12.35;2.97;;;20.00;99.90;;;;;;4912646;29;20396;-89
2022/04/05 10:15:51;;;;;;;11.38;2.70;;;20.00;99.90;;;;;;4916538;29;20486;-89
2022/04/05 10:18:21;;;;;;;9.88;2.60;;;20.00;99.90;;;;;;4914974;29;20400;-88
2022/04/05 10:20:50;;;;;;;8.10;2.58;;;20.10;99.90;;;;;;4914513;29;20792;-89
2022/04/05 10:23:23;;;;;;;11.25;2.70;;;20.10;99.90;;;;;;4915394;29;20455;-92
2022/04/05 10:25:53;;;;;;;8.15;2.30;;;20.00;99.90;;;;;;4915701;29;20444;-91
2022/04/05 10:28:32;;;;;;;8.57;2.80;;;20.00;99.90;;;;;;4913756;29;20561;-89
2022/04/05 10:31:17;;;;;;;12.77;2.90;;;19.90;99.90;;;;;;4922064;29;20398;-94
2022/04/05 10:34:24;;;;;;;7.13;2.50;;;20.00;99.90;;;;;;4937158;29;20491;-87
2022/04/05 10:37:09;;;;;;;10.27;2.97;;;19.90;99.90;;;;;;4912241;29;20458;-89
2022/04/05 10:39:39;;;;;;;17.50;3.30;;;20.00;99.90;;;;;;4912458;29;20403;-91
2022/04/05 10:42:25;;;;;;;14.00;3.22;;;20.10;99.90;;;;;;4890797;29;20413;-92
2022/04/05 10:45:08;;;;;;;12.20;3.20;;;18.70;99.90;;;;;;4913243;29;20443;-91
2022/04/05 10:48:13;;;;;;;11.43;3.50;;;20.10;99.90;;;;;;4884541;29;20393;-87
2022/04/05 10:50:45;;;;;;;11.70;2.70;;;20.20;99.90;;;;;;4908217;29;20407;-87
2022/04/05 10:53:22;;;;;;;10.13;2.88;;;20.20;99.90;;;;;;4912765;29;20400;-90
2022/04/05 10:56:08;;;;;;;16.95;3.15;;;20.10;99.90;;;;;;4913203;29;20424;-90
2022/04/05 10:58:56;;;;;;;20.87;3.60;;;20.10;99.90;;;;;;4897059;29;20825;-88
2022/04/05 11:01:39;;;;;;;22.30;3.65;;;20.10;99.90;;;;;;4912345;29;20618;-90
2022/04/05 11:04:17;;;;;;;21.13;3.25;;;20.10;99.90;;;;;;4912209;29;20899;-88
2022/04/05 11:07:01;;;;;;;19.33;3.00;;;20.00;99.90;;;;;;4912117;29;20773;-91
2022/04/05 11:09:33;;;;;;;13.98;2.90;;;20.00;99.90;;;;;;4911989;29;20411;-88
2022/04/05 11:12:06;;;;;;;14.93;2.90;;;19.90;99.90;;;;;;4914770;29;20402;-87
2022/04/05 11:14:41;;;;;;;20.33;3.30;;;19.90;99.90;;;;;;4965969;28;20891;-89
2022/04/05 11:17:10;;;;;;;17.67;3.40;;;19.80;99.90;;;;;;4966811;28;20469;-90
2022/04/05 11:19:40;;;;;;;18.73;3.45;;;19.70;99.90;;;;;;4970863;28;20456;-89
2022/04/05 11:22:27;;;;;;;15.52;3.28;;;19.60;99.90;;;;;;4948930;28;20426;-87
2022/04/05 11:25:00;;;;;;;15.88;3.22;;;19.50;99.90;;;;;;4941522;28;20404;-88
2022/04/05 11:27:46;;;;;;;14.82;3.60;;;19.40;99.90;;;;;;4964710;28;20480;-88
2022/04/05 11:30:27;;;;;;;14.87;4.00;;;19.30;99.90;;;;;;4950488;29;21024;-87
2022/04/05 11:33:12;;;;;;;14.63;3.83;;;19.20;99.90;;;;;;4958838;28;20400;-88
2022/04/05 11:35:46;;;;;;;20.35;4.57;;;19.20;99.90;;;;;;4952111;28;20404;-88
2022/04/05 11:38:35;;;;;;;16.70;4.18;;;19.30;99.90;;;;;;4934110;28;20384;-88
2022/04/05 11:41:11;;;;;;;15.88;3.70;;;19.20;99.90;;;;;;4953952;28;20396;-89
2022/04/05 11:43:44;;;;;;;13.35;3.80;;;19.20;99.90;;;;;;4961941;28;20913;-86
2022/04/05 11:46:17;;;;;;;13.00;3.42;;;19.20;99.90;;;;;;4975842;28;20382;-89
2022/04/05 11:48:51;;;;;;;11.00;3.40;;;19.20;99.90;;;;;;4957505;28;20902;-91
2022/04/05 11:51:24;;;;;;;13.38;3.10;;;19.20;99.90;;;;;;4951617;28;20907;-90
2022/04/05 11:53:52;;;;;;;11.10;2.73;;;19.20;99.90;;;;;;4965490;28;20401;-87
2022/04/05 11:56:24;;;;;;;8.93;2.78;;;19.30;99.90;;;;;;4954283;28;20388;-89
2022/04/05 11:58:58;;;;;;;9.23;2.60;;;19.20;99.90;;;;;;4946445;28;20462;-89
2022/04/05 12:01:32;;;;;;;11.32;2.80;;;19.20;99.90;;;;;;4961731;28;20396;-87
2022/04/05 12:04:02;;;;;;;14.98;3.10;;;19.30;99.90;;;;;;4969793;28;20407;-88
2022/04/05 12:06:34;;;;;;;16.23;3.55;;;19.30;99.90;;;;;;4952283;28;20409;-86
2022/04/05 12:09:08;;;;;;;15.00;3.30;;;19.30;99.90;;;;;;4939899;29;20384;-86
2022/04/05 12:11:37;;;;;;;13.45;3.30;;;19.30;99.90;;;;;;4952891;29;20387;-88
2022/04/05 12:14:09;;;;;;;13.98;3.20;;;19.20;99.90;;;;;;4952609;28;20424;-88
2022/04/05 12:16:51;;;;;;;17.63;3.60;;;19.20;99.90;;;;;;4957936;28;20769;-87
2022/04/05 12:19:19;;;;;;;10.68;3.22;;;19.10;99.90;;;;;;4954176;28;20392;-86
2022/04/05 12:22:07;;;;;;;12.07;3.47;;;19.00;99.90;;;;;;4966281;28;20407;-87
2022/04/05 12:24:50;;;;;;;14.15;3.75;;;19.00;99.90;;;;;;4957670;28;20935;-87
2022/04/05 12:27:21;;;;;;;15.40;3.50;;;19.00;99.90;;;;;;4954639;29;20420;-86
2022/04/05 12:29:49;;;;;;;14.95;3.63;;;18.90;99.90;;;;;;4968142;28;20398;-88
2022/04/05 12:32:16;;;;;;;15.77;3.42;;;18.90;99.90;;;;;;4974575;28;20738;-87
2022/04/05 12:34:47;;;;;;;17.93;3.97;;;18.90;99.90;;;;;;4955849;28;20988;-88
2022/04/05 12:37:16;;;;;;;14.97;3.60;;;18.90;99.90;;;;;;4965228;28;20399;-86
2022/04/05 12:39:50;;;;;;;17.25;4.68;;;18.90;99.90;;;;;;4969362;28;20477;-87
2022/04/05 12:42:19;;;;;;;12.57;3.85;;;18.80;99.90;;;;;;4971821;28;20410;-91
2022/04/05 12:44:48;;;;;;;15.10;3.60;;;18.90;99.90;;;;;;4973947;28;20477;-87
2022/04/05 12:47:20;;;;;;;9.13;3.45;;;18.80;99.90;;;;;;4975057;28;20913;-87
2022/04/05 12:49:50;;;;;;;19.38;3.95;;;18.80;99.90;;;;;;4948846;29;20400;-86
2022/04/05 12:52:18;;;;;;;24.77;4.43;;;18.80;99.90;;;;;;4937171;29;20447;-86
2022/04/05 12:54:58;;;;;;;18.98;3.90;;;18.80;99.90;;;;;;4936069;29;20407;-91
2022/04/05 12:57:38;;;;;;;17.63;4.00;;;18.80;99.90;;;;;;4939683;28;20772;-88
2022/04/05 13:00:13;;;;;;;19.10;3.97;;;18.70;99.90;;;;;;4955201;28;20446;-89